sensor_id;sensor_type;location;lat;lon;timestamp;P1;durP1;ratioP1;P2;durP2;ratioP2
67597;SDS011;62026;39.230;9.122;2022-10-31T00:00:13;24.33;;;10.30;;
67597;SDS011;62026;39.230;9.122;2022-10-31T00:02:41;14.65;;;6.43;;
67597;SDS011;62026;39.230;9.122;2022-10-31T00:05:07;12.02;;;5.32;;
67597;SDS011;62026;39.230;9.122;2022-10-31T00:07:33;16.50;;;5.03;;
67597;SDS011;62026;39.230;9.122;2022-10-31T00:09:59;13.77;;;6.03;;
67597;SDS011;62026;39.230;9.122;2022-10-31T00:12:26;8.50;;;4.55;;
67597;SDS011;62026;39.230;9.122;2022-10-31T00:14:52;11.30;;;3.80;;
67597;SDS011;62026;39.230;9.122;2022-10-31T00:17:18;7.95;;;3.97;;
67597;SDS011;62026;39.230;9.122;2022-10-31T00:19:44;9.50;;;3.95;;
67597;SDS011;62026;39.230;9.122;2022-10-31T00:22:10;6.80;;;3.83;;
67597;SDS011;62026;39.230;9.122;2022-10-31T00:24:36;12.55;;;4.05;;
67597;SDS011;62026;39.230;9.122;2022-10-31T00:27:02;9.13;;;3.70;;
67597;SDS011;62026;39.230;9.122;2022-10-31T00:29:28;6.85;;;3.55;;
67597;SDS011;62026;39.230;9.122;2022-10-31T00:31:54;9.35;;;3.72;;
67597;SDS011;62026;39.230;9.122;2022-10-31T00:34:20;12.43;;;3.85;;
67597;SDS011;62026;39.230;9.122;2022-10-31T00:36:46;9.27;;;3.25;;
67597;SDS011;62026;39.230;9.122;2022-10-31T00:39:12;9.32;;;3.10;;
67597;SDS011;62026;39.230;9.122;2022-10-31T00:41:38;9.00;;;3.38;;
67597;SDS011;62026;39.230;9.122;2022-10-31T00:46:36;8.70;;;3.10;;
67597;SDS011;62026;39.230;9.122;2022-10-31T00:49:02;6.68;;;2.78;;
67597;SDS011;62026;39.230;9.122;2022-10-31T00:51:28;11.43;;;3.25;;
67597;SDS011;62026;39.230;9.122;2022-10-31T00:53:54;5.95;;;3.15;;
67597;SDS011;62026;39.230;9.122;2022-10-31T00:56:20;6.85;;;2.67;;
67597;SDS011;62026;39.230;9.122;2022-10-31T00:58:46;8.82;;;3.40;;
67597;SDS011;62026;39.230;9.122;2022-10-31T01:01:12;7.00;;;2.90;;
67597;SDS011;62026;39.230;9.122;2022-10-31T01:03:38;9.27;;;3.05;;
67597;SDS011;62026;39.230;9.122;2022-10-31T01:06:09;6.32;;;2.97;;
67597;SDS011;62026;39.230;9.122;2022-10-31T01:08:38;7.22;;;2.78;;
67597;SDS011;62026;39.230;9.122;2022-10-31T01:13:43;7.65;;;2.80;;
67597;SDS011;62026;39.230;9.122;2022-10-31T01:16:11;6.85;;;2.88;;
67597;SDS011;62026;39.230;9.122;2022-10-31T01:18:42;10.38;;;3.08;;
67597;SDS011;62026;39.230;9.122;2022-10-31T01:21:10;10.32;;;2.83;;
67597;SDS011;62026;39.230;9.122;2022-10-31T01:23:40;7.90;;;3.10;;
67597;SDS011;62026;39.230;9.122;2022-10-31T01:28:49;7.45;;;2.95;;
67597;SDS011;62026;39.230;9.122;2022-10-31T01:31:29;5.65;;;3.00;;
67597;SDS011;62026;39.230;9.122;2022-10-31T01:34:00;8.38;;;3.30;;
67597;SDS011;62026;39.230;9.122;2022-10-31T01:36:31;9.38;;;3.00;;
67597;SDS011;62026;39.230;9.122;2022-10-31T01:39:09;8.68;;;3.15;;
67597;SDS011;62026;39.230;9.122;2022-10-31T01:41:44;9.70;;;3.22;;
67597;SDS011;62026;39.230;9.122;2022-10-31T01:46:44;7.50;;;3.10;;
67597;SDS011;62026;39.230;9.122;2022-10-31T01:49:18;6.75;;;2.90;;
67597;SDS011;62026;39.230;9.122;2022-10-31T01:51:53;6.93;;;2.90;;
67597;SDS011;62026;39.230;9.122;2022-10-31T01:54:28;10.00;;;3.33;;
67597;SDS011;62026;39.230;9.122;2022-10-31T01:57:02;9.05;;;3.17;;
67597;SDS011;62026;39.230;9.122;2022-10-31T01:59:34;7.68;;;3.00;;
67597;SDS011;62026;39.230;9.122;2022-10-31T02:02:07;6.88;;;3.55;;
67597;SDS011;62026;39.230;9.122;2022-10-31T02:04:33;8.05;;;3.50;;
67597;SDS011;62026;39.230;9.122;2022-10-31T02:07:14;7.75;;;3.63;;
67597;SDS011;62026;39.230;9.122;2022-10-31T02:09:51;7.68;;;3.55;;
67597;SDS011;62026;39.230;9.122;2022-10-31T02:12:21;9.50;;;3.70;;
67597;SDS011;62026;39.230;9.122;2022-10-31T02:14:48;7.43;;;3.70;;
67597;SDS011;62026;39.230;9.122;2022-10-31T02:17:14;6.63;;;3.40;;
67597;SDS011;62026;39.230;9.122;2022-10-31T02:34:43;8.90;;;3.50;;
67597;SDS011;62026;39.230;9.122;2022-10-31T02:40:51;10.10;;;3.60;;
67597;SDS011;62026;39.230;9.122;2022-10-31T02:43:47;5.70;;;2.63;;
67597;SDS011;62026;39.230;9.122;2022-10-31T02:46:39;6.30;;;3.00;;
67597;SDS011;62026;39.230;9.122;2022-10-31T02:49:29;6.15;;;2.88;;
67597;SDS011;62026;39.230;9.122;2022-10-31T02:52:31;6.25;;;3.00;;
67597;SDS011;62026;39.230;9.122;2022-10-31T02:55:09;5.28;;;3.15;;
67597;SDS011;62026;39.230;9.122;2022-10-31T02:57:47;10.32;;;3.13;;
67597;SDS011;62026;39.230;9.122;2022-10-31T03:00:19;7.97;;;2.72;;
67597;SDS011;62026;39.230;9.122;2022-10-31T03:06:09;7.00;;;2.88;;
67597;SDS011;62026;39.230;9.122;2022-10-31T03:09:09;6.82;;;2.72;;
67597;SDS011;62026;39.230;9.122;2022-10-31T03:12:00;6.63;;;2.90;;
67597;SDS011;62026;39.230;9.122;2022-10-31T03:18:08;5.57;;;3.28;;
67597;SDS011;62026;39.230;9.122;2022-10-31T03:20:59;6.13;;;3.17;;
67597;SDS011;62026;39.230;9.122;2022-10-31T03:23:44;6.18;;;2.83;;
67597;SDS011;62026;39.230;9.122;2022-10-31T03:26:18;5.00;;;2.75;;
67597;SDS011;62026;39.230;9.122;2022-10-31T03:28:57;5.07;;;2.65;;
67597;SDS011;62026;39.230;9.122;2022-10-31T03:31:31;9.35;;;2.65;;
67597;SDS011;62026;39.230;9.122;2022-10-31T03:34:22;4.72;;;2.63;;
67597;SDS011;62026;39.230;9.122;2022-10-31T03:36:49;6.43;;;3.03;;
67597;SDS011;62026;39.230;9.122;2022-10-31T03:39:20;9.60;;;2.53;;
67597;SDS011;62026;39.230;9.122;2022-10-31T03:41:57;6.85;;;2.72;;
67597;SDS011;62026;39.230;9.122;2022-10-31T03:44:39;6.53;;;2.75;;
67597;SDS011;62026;39.230;9.122;2022-10-31T03:47:12;6.43;;;2.67;;
67597;SDS011;62026;39.230;9.122;2022-10-31T03:49:38;4.93;;;2.90;;
67597;SDS011;62026;39.230;9.122;2022-10-31T03:52:25;6.05;;;2.83;;
67597;SDS011;62026;39.230;9.122;2022-10-31T03:54:56;6.88;;;2.97;;
67597;SDS011;62026;39.230;9.122;2022-10-31T03:57:44;5.07;;;3.00;;
67597;SDS011;62026;39.230;9.122;2022-10-31T04:00:22;5.43;;;3.03;;
67597;SDS011;62026;39.230;9.122;2022-10-31T04:02:55;7.05;;;2.90;;
67597;SDS011;62026;39.230;9.122;2022-10-31T04:05:28;8.55;;;3.47;;
67597;SDS011;62026;39.230;9.122;2022-10-31T04:08:00;5.18;;;3.10;;
67597;SDS011;62026;39.230;9.122;2022-10-31T04:10:30;5.90;;;3.15;;
67597;SDS011;62026;39.230;9.122;2022-10-31T04:13:01;6.18;;;2.80;;
67597;SDS011;62026;39.230;9.122;2022-10-31T04:15:41;5.60;;;3.05;;
67597;SDS011;62026;39.230;9.122;2022-10-31T04:18:10;5.90;;;2.67;;
67597;SDS011;62026;39.230;9.122;2022-10-31T04:20:37;5.53;;;3.00;;
67597;SDS011;62026;39.230;9.122;2022-10-31T04:23:05;6.43;;;2.90;;
67597;SDS011;62026;39.230;9.122;2022-10-31T04:25:49;8.93;;;2.75;;
67597;SDS011;62026;39.230;9.122;2022-10-31T04:28:16;7.82;;;3.17;;
67597;SDS011;62026;39.230;9.122;2022-10-31T04:30:43;6.10;;;2.90;;
67597;SDS011;62026;39.230;9.122;2022-10-31T04:33:09;6.18;;;3.10;;
67597;SDS011;62026;39.230;9.122;2022-10-31T04:35:36;9.60;;;2.83;;
67597;SDS011;62026;39.230;9.122;2022-10-31T04:38:02;8.45;;;2.88;;
67597;SDS011;62026;39.230;9.122;2022-10-31T04:40:29;4.72;;;2.80;;
67597;SDS011;62026;39.230;9.122;2022-10-31T04:43:14;4.93;;;2.85;;
67597;SDS011;62026;39.230;9.122;2022-10-31T04:45:42;5.47;;;2.92;;
67597;SDS011;62026;39.230;9.122;2022-10-31T04:48:08;6.70;;;3.40;;
67597;SDS011;62026;39.230;9.122;2022-10-31T04:50:35;8.07;;;3.25;;
67597;SDS011;62026;39.230;9.122;2022-10-31T04:53:01;10.88;;;2.97;;
67597;SDS011;62026;39.230;9.122;2022-10-31T04:55:37;4.45;;;3.10;;
67597;SDS011;62026;39.230;9.122;2022-10-31T04:58:32;7.63;;;3.00;;
67597;SDS011;62026;39.230;9.122;2022-10-31T05:00:58;7.97;;;2.85;;
67597;SDS011;62026;39.230;9.122;2022-10-31T05:03:25;5.38;;;2.75;;
67597;SDS011;62026;39.230;9.122;2022-10-31T05:05:51;6.03;;;2.83;;
67597;SDS011;62026;39.230;9.122;2022-10-31T05:08:17;6.97;;;2.47;;
67597;SDS011;62026;39.230;9.122;2022-10-31T05:10:44;8.05;;;3.05;;
67597;SDS011;62026;39.230;9.122;2022-10-31T05:13:10;5.50;;;2.45;;
67597;SDS011;62026;39.230;9.122;2022-10-31T05:16:12;4.13;;;2.53;;
67597;SDS011;62026;39.230;9.122;2022-10-31T05:18:50;9.43;;;3.00;;
67597;SDS011;62026;39.230;9.122;2022-10-31T05:21:18;7.28;;;2.70;;
67597;SDS011;62026;39.230;9.122;2022-10-31T05:23:49;7.40;;;2.95;;
67597;SDS011;62026;39.230;9.122;2022-10-31T05:26:16;8.80;;;3.22;;
67597;SDS011;62026;39.230;9.122;2022-10-31T05:28:43;6.53;;;2.63;;
67597;SDS011;62026;39.230;9.122;2022-10-31T05:31:10;5.20;;;2.45;;
67597;SDS011;62026;39.230;9.122;2022-10-31T05:33:36;6.35;;;2.65;;
67597;SDS011;62026;39.230;9.122;2022-10-31T05:36:21;6.93;;;2.58;;
67597;SDS011;62026;39.230;9.122;2022-10-31T05:38:58;9.18;;;2.60;;
67597;SDS011;62026;39.230;9.122;2022-10-31T05:41:27;7.47;;;2.50;;
67597;SDS011;62026;39.230;9.122;2022-10-31T05:44:02;7.95;;;2.70;;
67597;SDS011;62026;39.230;9.122;2022-10-31T05:46:31;8.90;;;2.50;;
67597;SDS011;62026;39.230;9.122;2022-10-31T05:49:20;4.68;;;2.83;;
67597;SDS011;62026;39.230;9.122;2022-10-31T05:51:56;8.75;;;2.88;;
67597;SDS011;62026;39.230;9.122;2022-10-31T05:54:31;9.48;;;2.70;;
67597;SDS011;62026;39.230;9.122;2022-10-31T05:56:57;5.97;;;2.78;;
67597;SDS011;62026;39.230;9.122;2022-10-31T05:59:23;10.65;;;2.90;;
67597;SDS011;62026;39.230;9.122;2022-10-31T06:01:49;8.25;;;3.05;;
67597;SDS011;62026;39.230;9.122;2022-10-31T06:04:34;5.25;;;2.83;;
67597;SDS011;62026;39.230;9.122;2022-10-31T06:07:01;11.98;;;2.60;;
67597;SDS011;62026;39.230;9.122;2022-10-31T06:09:29;8.77;;;2.85;;
67597;SDS011;62026;39.230;9.122;2022-10-31T06:11:55;10.30;;;2.60;;
67597;SDS011;62026;39.230;9.122;2022-10-31T06:14:24;5.40;;;2.55;;
67597;SDS011;62026;39.230;9.122;2022-10-31T06:16:53;4.25;;;2.30;;
67597;SDS011;62026;39.230;9.122;2022-10-31T06:19:39;10.77;;;2.53;;
67597;SDS011;62026;39.230;9.122;2022-10-31T06:22:06;9.50;;;3.25;;
67597;SDS011;62026;39.230;9.122;2022-10-31T06:24:32;4.22;;;2.58;;
67597;SDS011;62026;39.230;9.122;2022-10-31T06:27:06;7.45;;;2.88;;
67597;SDS011;62026;39.230;9.122;2022-10-31T06:29:32;9.65;;;3.03;;
67597;SDS011;62026;39.230;9.122;2022-10-31T06:32:09;6.85;;;3.00;;
67597;SDS011;62026;39.230;9.122;2022-10-31T06:34:40;7.13;;;3.28;;
67597;SDS011;62026;39.230;9.122;2022-10-31T06:37:08;6.60;;;2.92;;
67597;SDS011;62026;39.230;9.122;2022-10-31T06:39:39;6.45;;;3.00;;
67597;SDS011;62026;39.230;9.122;2022-10-31T06:42:08;5.80;;;2.60;;
67597;SDS011;62026;39.230;9.122;2022-10-31T06:44:34;7.10;;;2.90;;
67597;SDS011;62026;39.230;9.122;2022-10-31T06:47:38;7.68;;;2.50;;
67597;SDS011;62026;39.230;9.122;2022-10-31T06:50:07;4.95;;;2.60;;
67597;SDS011;62026;39.230;9.122;2022-10-31T06:52:34;8.88;;;3.55;;
67597;SDS011;62026;39.230;9.122;2022-10-31T06:55:02;7.00;;;3.15;;
67597;SDS011;62026;39.230;9.122;2022-10-31T06:57:29;6.50;;;2.70;;
67597;SDS011;62026;39.230;9.122;2022-10-31T06:59:55;8.00;;;2.65;;
67597;SDS011;62026;39.230;9.122;2022-10-31T07:02:40;6.68;;;2.35;;
67597;SDS011;62026;39.230;9.122;2022-10-31T07:05:06;7.05;;;2.60;;
67597;SDS011;62026;39.230;9.122;2022-10-31T07:07:32;12.65;;;2.85;;
67597;SDS011;62026;39.230;9.122;2022-10-31T07:09:58;8.85;;;2.92;;
67597;SDS011;62026;39.230;9.122;2022-10-31T07:12:40;12.18;;;3.05;;
67597;SDS011;62026;39.230;9.122;2022-10-31T07:15:07;7.88;;;2.72;;
67597;SDS011;62026;39.230;9.122;2022-10-31T07:17:35;6.72;;;2.28;;
67597;SDS011;62026;39.230;9.122;2022-10-31T07:20:01;8.55;;;2.67;;
67597;SDS011;62026;39.230;9.122;2022-10-31T07:22:33;6.90;;;2.50;;
67597;SDS011;62026;39.230;9.122;2022-10-31T07:25:06;8.45;;;2.90;;
67597;SDS011;62026;39.230;9.122;2022-10-31T07:28:11;14.40;;;2.88;;
67597;SDS011;62026;39.230;9.122;2022-10-31T07:30:37;5.55;;;2.30;;
67597;SDS011;62026;39.230;9.122;2022-10-31T07:33:04;8.15;;;2.92;;
67597;SDS011;62026;39.230;9.122;2022-10-31T07:35:51;6.30;;;2.88;;
67597;SDS011;62026;39.230;9.122;2022-10-31T07:38:21;8.80;;;3.22;;
67597;SDS011;62026;39.230;9.122;2022-10-31T07:40:51;7.63;;;3.10;;
67597;SDS011;62026;39.230;9.122;2022-10-31T07:43:18;7.07;;;2.53;;
67597;SDS011;62026;39.230;9.122;2022-10-31T07:46:17;10.60;;;2.50;;
67597;SDS011;62026;39.230;9.122;2022-10-31T07:48:46;9.63;;;2.95;;
67597;SDS011;62026;39.230;9.122;2022-10-31T07:51:30;6.93;;;2.90;;
67597;SDS011;62026;39.230;9.122;2022-10-31T07:54:14;7.93;;;2.80;;
67597;SDS011;62026;39.230;9.122;2022-10-31T07:56:41;7.45;;;2.60;;
67597;SDS011;62026;39.230;9.122;2022-10-31T07:59:08;11.02;;;2.72;;
67597;SDS011;62026;39.230;9.122;2022-10-31T08:01:34;10.70;;;2.65;;
67597;SDS011;62026;39.230;9.122;2022-10-31T08:04:20;9.52;;;2.63;;
67597;SDS011;62026;39.230;9.122;2022-10-31T08:07:05;12.48;;;3.72;;
67597;SDS011;62026;39.230;9.122;2022-10-31T08:09:34;7.20;;;2.92;;
67597;SDS011;62026;39.230;9.122;2022-10-31T08:14:34;8.75;;;3.10;;
67597;SDS011;62026;39.230;9.122;2022-10-31T08:17:00;12.55;;;3.10;;
67597;SDS011;62026;39.230;9.122;2022-10-31T08:19:34;13.48;;;3.50;;
67597;SDS011;62026;39.230;9.122;2022-10-31T08:22:00;14.35;;;3.58;;
67597;SDS011;62026;39.230;9.122;2022-10-31T08:24:26;11.13;;;4.55;;
67597;SDS011;62026;39.230;9.122;2022-10-31T08:26:53;16.17;;;3.83;;
67597;SDS011;62026;39.230;9.122;2022-10-31T08:29:20;12.57;;;3.33;;
67597;SDS011;62026;39.230;9.122;2022-10-31T08:31:46;13.75;;;3.55;;
67597;SDS011;62026;39.230;9.122;2022-10-31T08:34:30;11.38;;;3.25;;
67597;SDS011;62026;39.230;9.122;2022-10-31T08:37:15;9.35;;;3.53;;
67597;SDS011;62026;39.230;9.122;2022-10-31T08:39:46;15.02;;;3.42;;
67597;SDS011;62026;39.230;9.122;2022-10-31T08:42:13;10.63;;;3.08;;
67597;SDS011;62026;39.230;9.122;2022-10-31T08:44:39;10.23;;;3.58;;
67597;SDS011;62026;39.230;9.122;2022-10-31T08:47:05;19.73;;;4.18;;
67597;SDS011;62026;39.230;9.122;2022-10-31T08:49:33;9.55;;;3.97;;
67597;SDS011;62026;39.230;9.122;2022-10-31T08:51:59;10.10;;;4.07;;
67597;SDS011;62026;39.230;9.122;2022-10-31T08:54:30;10.68;;;3.92;;
67597;SDS011;62026;39.230;9.122;2022-10-31T08:57:16;13.48;;;4.35;;
67597;SDS011;62026;39.230;9.122;2022-10-31T08:59:45;21.10;;;5.03;;
67597;SDS011;62026;39.230;9.122;2022-10-31T09:02:11;11.85;;;4.18;;
67597;SDS011;62026;39.230;9.122;2022-10-31T09:04:37;16.38;;;4.90;;
67597;SDS011;62026;39.230;9.122;2022-10-31T09:07:03;13.82;;;4.95;;
67597;SDS011;62026;39.230;9.122;2022-10-31T09:09:29;15.35;;;4.90;;
67597;SDS011;62026;39.230;9.122;2022-10-31T09:11:56;15.20;;;4.18;;
67597;SDS011;62026;39.230;9.122;2022-10-31T09:14:22;15.18;;;4.15;;
67597;SDS011;62026;39.230;9.122;2022-10-31T09:17:17;19.52;;;4.32;;
67597;SDS011;62026;39.230;9.122;2022-10-31T09:20:03;8.75;;;4.00;;
67597;SDS011;62026;39.230;9.122;2022-10-31T09:22:33;9.18;;;3.25;;
67597;SDS011;62026;39.230;9.122;2022-10-31T09:24:59;14.23;;;3.80;;
67597;SDS011;62026;39.230;9.122;2022-10-31T09:27:25;14.15;;;3.17;;
67597;SDS011;62026;39.230;9.122;2022-10-31T09:29:54;14.18;;;3.03;;
67597;SDS011;62026;39.230;9.122;2022-10-31T09:32:20;9.40;;;2.42;;
67597;SDS011;62026;39.230;9.122;2022-10-31T09:34:46;7.15;;;2.28;;
67597;SDS011;62026;39.230;9.122;2022-10-31T09:39:44;10.88;;;2.50;;
67597;SDS011;62026;39.230;9.122;2022-10-31T09:48:51;7.13;;;2.63;;
67597;SDS011;62026;39.230;9.122;2022-10-31T09:51:48;6.72;;;2.10;;
67597;SDS011;62026;39.230;9.122;2022-10-31T09:54:48;9.55;;;2.17;;
67597;SDS011;62026;39.230;9.122;2022-10-31T09:57:27;6.65;;;2.15;;
67597;SDS011;62026;39.230;9.122;2022-10-31T09:59:58;6.88;;;2.25;;
67597;SDS011;62026;39.230;9.122;2022-10-31T10:05:49;5.80;;;2.17;;
67597;SDS011;62026;39.230;9.122;2022-10-31T10:08:35;8.70;;;2.30;;
67597;SDS011;62026;39.230;9.122;2022-10-31T10:25:22;5.43;;;2.00;;
67597;SDS011;62026;39.230;9.122;2022-10-31T10:30:49;6.15;;;2.00;;
67597;SDS011;62026;39.230;9.122;2022-10-31T10:33:38;5.88;;;2.08;;
67597;SDS011;62026;39.230;9.122;2022-10-31T10:41:30;5.68;;;1.90;;
67597;SDS011;62026;39.230;9.122;2022-10-31T10:43:58;4.50;;;2.03;;
67597;SDS011;62026;39.230;9.122;2022-10-31T10:46:43;5.93;;;1.88;;
67597;SDS011;62026;39.230;9.122;2022-10-31T10:49:46;6.30;;;2.20;;
67597;SDS011;62026;39.230;9.122;2022-10-31T11:00:30;4.82;;;1.80;;
67597;SDS011;62026;39.230;9.122;2022-10-31T11:03:03;7.72;;;2.35;;
67597;SDS011;62026;39.230;9.122;2022-10-31T11:05:40;11.20;;;2.25;;
67597;SDS011;62026;39.230;9.122;2022-10-31T11:08:29;8.98;;;1.98;;
67597;SDS011;62026;39.230;9.122;2022-10-31T11:14:02;8.95;;;2.05;;
67597;SDS011;62026;39.230;9.122;2022-10-31T11:16:37;7.90;;;2.47;;
67597;SDS011;62026;39.230;9.122;2022-10-31T11:21:37;7.88;;;2.22;;
67597;SDS011;62026;39.230;9.122;2022-10-31T11:26:41;4.40;;;2.22;;
67597;SDS011;62026;39.230;9.122;2022-10-31T11:29:13;5.95;;;2.20;;
67597;SDS011;62026;39.230;9.122;2022-10-31T11:31:50;7.50;;;2.08;;
67597;SDS011;62026;39.230;9.122;2022-10-31T11:37:03;9.05;;;2.15;;
67597;SDS011;62026;39.230;9.122;2022-10-31T11:39:45;6.70;;;2.05;;
67597;SDS011;62026;39.230;9.122;2022-10-31T11:42:29;6.85;;;2.28;;
67597;SDS011;62026;39.230;9.122;2022-10-31T11:45:45;6.50;;;2.10;;
67597;SDS011;62026;39.230;9.122;2022-10-31T11:47:59;7.97;;;2.20;;
67597;SDS011;62026;39.230;9.122;2022-10-31T11:50:34;8.90;;;2.15;;
67597;SDS011;62026;39.230;9.122;2022-10-31T11:53:11;5.72;;;1.98;;
67597;SDS011;62026;39.230;9.122;2022-10-31T11:55:44;4.40;;;1.88;;
67597;SDS011;62026;39.230;9.122;2022-10-31T11:58:22;8.00;;;1.98;;
67597;SDS011;62026;39.230;9.122;2022-10-31T12:00:51;8.02;;;1.95;;
67597;SDS011;62026;39.230;9.122;2022-10-31T12:06:16;4.90;;;1.80;;
67597;SDS011;62026;39.230;9.122;2022-10-31T12:09:00;5.50;;;1.98;;
67597;SDS011;62026;39.230;9.122;2022-10-31T12:11:42;7.15;;;2.00;;
67597;SDS011;62026;39.230;9.122;2022-10-31T12:14:21;6.60;;;1.95;;
67597;SDS011;62026;39.230;9.122;2022-10-31T12:17:06;5.72;;;1.98;;
67597;SDS011;62026;39.230;9.122;2022-10-31T12:29:23;5.82;;;1.90;;
67597;SDS011;62026;39.230;9.122;2022-10-31T12:35:10;5.45;;;1.88;;
67597;SDS011;62026;39.230;9.122;2022-10-31T12:40:59;9.82;;;2.10;;
67597;SDS011;62026;39.230;9.122;2022-10-31T12:49:35;6.43;;;1.80;;
67597;SDS011;62026;39.230;9.122;2022-10-31T13:01:29;4.95;;;1.30;;
67597;SDS011;62026;39.230;9.122;2022-10-31T13:04:06;3.53;;;1.58;;
67597;SDS011;62026;39.230;9.122;2022-10-31T13:07:17;2.38;;;1.60;;
67597;SDS011;62026;39.230;9.122;2022-10-31T13:13:16;3.42;;;1.40;;
67597;SDS011;62026;39.230;9.122;2022-10-31T13:16:00;6.03;;;1.52;;
67597;SDS011;62026;39.230;9.122;2022-10-31T13:18:54;6.07;;;1.60;;
67597;SDS011;62026;39.230;9.122;2022-10-31T13:21:41;6.30;;;1.95;;
67597;SDS011;62026;39.230;9.122;2022-10-31T13:24:53;5.45;;;1.50;;
67597;SDS011;62026;39.230;9.122;2022-10-31T13:27:25;4.82;;;1.90;;
67597;SDS011;62026;39.230;9.122;2022-10-31T13:32:59;5.72;;;1.65;;
67597;SDS011;62026;39.230;9.122;2022-10-31T13:35:54;5.18;;;1.65;;
67597;SDS011;62026;39.230;9.122;2022-10-31T13:44:32;4.90;;;1.58;;
67597;SDS011;62026;39.230;9.122;2022-10-31T13:47:20;7.30;;;1.95;;
67597;SDS011;62026;39.230;9.122;2022-10-31T13:50:04;8.13;;;1.60;;
67597;SDS011;62026;39.230;9.122;2022-10-31T13:52:44;7.05;;;1.65;;
67597;SDS011;62026;39.230;9.122;2022-10-31T13:58:53;3.30;;;1.75;;
67597;SDS011;62026;39.230;9.122;2022-10-31T14:01:22;3.13;;;1.50;;
67597;SDS011;62026;39.230;9.122;2022-10-31T14:06:45;4.28;;;1.20;;
67597;SDS011;62026;39.230;9.122;2022-10-31T14:09:20;3.85;;;1.40;;
67597;SDS011;62026;39.230;9.122;2022-10-31T14:11:52;3.83;;;1.25;;
67597;SDS011;62026;39.230;9.122;2022-10-31T14:14:20;3.40;;;1.40;;
67597;SDS011;62026;39.230;9.122;2022-10-31T14:16:56;5.53;;;2.13;;
67597;SDS011;62026;39.230;9.122;2022-10-31T14:19:23;6.18;;;1.60;;
67597;SDS011;62026;39.230;9.122;2022-10-31T14:21:51;2.63;;;1.40;;
67597;SDS011;62026;39.230;9.122;2022-10-31T14:26:53;7.07;;;1.70;;
67597;SDS011;62026;39.230;9.122;2022-10-31T14:29:31;6.40;;;1.75;;
67597;SDS011;62026;39.230;9.122;2022-10-31T14:34:41;7.50;;;1.70;;
67597;SDS011;62026;39.230;9.122;2022-10-31T14:48:46;3.63;;;1.50;;
67597;SDS011;62026;39.230;9.122;2022-10-31T14:51:38;5.38;;;1.50;;
67597;SDS011;62026;39.230;9.122;2022-10-31T14:54:11;3.83;;;1.70;;
67597;SDS011;62026;39.230;9.122;2022-10-31T14:57:04;6.78;;;1.58;;
67597;SDS011;62026;39.230;9.122;2022-10-31T14:59:42;5.32;;;1.45;;
67597;SDS011;62026;39.230;9.122;2022-10-31T15:02:22;2.70;;;1.55;;
67597;SDS011;62026;39.230;9.122;2022-10-31T15:04:55;3.97;;;1.83;;
67597;SDS011;62026;39.230;9.122;2022-10-31T15:07:26;5.90;;;1.77;;
67597;SDS011;62026;39.230;9.122;2022-10-31T15:09:56;4.50;;;1.50;;
67597;SDS011;62026;39.230;9.122;2022-10-31T15:12:26;7.25;;;1.98;;
67597;SDS011;62026;39.230;9.122;2022-10-31T15:15:11;4.78;;;1.50;;
67597;SDS011;62026;39.230;9.122;2022-10-31T15:17:43;3.20;;;1.60;;
67597;SDS011;62026;39.230;9.122;2022-10-31T15:20:22;6.50;;;1.58;;
67597;SDS011;62026;39.230;9.122;2022-10-31T15:22:54;6.13;;;1.80;;
67597;SDS011;62026;39.230;9.122;2022-10-31T15:25:24;4.25;;;1.60;;
67597;SDS011;62026;39.230;9.122;2022-10-31T15:27:54;4.18;;;1.83;;
67597;SDS011;62026;39.230;9.122;2022-10-31T15:30:25;5.53;;;1.70;;
67597;SDS011;62026;39.230;9.122;2022-10-31T15:32:53;3.67;;;1.55;;
67597;SDS011;62026;39.230;9.122;2022-10-31T15:37:50;3.67;;;1.60;;
67597;SDS011;62026;39.230;9.122;2022-10-31T15:40:19;3.97;;;1.60;;
67597;SDS011;62026;39.230;9.122;2022-10-31T15:42:53;4.38;;;1.90;;
67597;SDS011;62026;39.230;9.122;2022-10-31T15:45:33;6.50;;;1.70;;
67597;SDS011;62026;39.230;9.122;2022-10-31T15:48:01;9.45;;;1.75;;
67597;SDS011;62026;39.230;9.122;2022-10-31T15:50:45;8.30;;;1.80;;
67597;SDS011;62026;39.230;9.122;2022-10-31T15:53:23;5.32;;;1.95;;
67597;SDS011;62026;39.230;9.122;2022-10-31T15:56:06;5.47;;;1.88;;
67597;SDS011;62026;39.230;9.122;2022-10-31T15:58:44;4.57;;;1.80;;
67597;SDS011;62026;39.230;9.122;2022-10-31T16:01:22;5.65;;;2.15;;
67597;SDS011;62026;39.230;9.122;2022-10-31T16:03:58;6.18;;;2.00;;
67597;SDS011;62026;39.230;9.122;2022-10-31T16:06:40;7.88;;;2.30;;
67597;SDS011;62026;39.230;9.122;2022-10-31T16:09:22;9.95;;;1.88;;
67597;SDS011;62026;39.230;9.122;2022-10-31T16:11:49;8.13;;;2.30;;
67597;SDS011;62026;39.230;9.122;2022-10-31T16:14:16;5.68;;;2.08;;
67597;SDS011;62026;39.230;9.122;2022-10-31T16:16:54;6.05;;;2.00;;
67597;SDS011;62026;39.230;9.122;2022-10-31T16:19:28;9.80;;;2.17;;
67597;SDS011;62026;39.230;9.122;2022-10-31T16:22:04;9.55;;;2.22;;
67597;SDS011;62026;39.230;9.122;2022-10-31T16:24:42;6.05;;;2.13;;
67597;SDS011;62026;39.230;9.122;2022-10-31T16:27:21;5.95;;;2.08;;
67597;SDS011;62026;39.230;9.122;2022-10-31T16:29:55;7.50;;;2.20;;
67597;SDS011;62026;39.230;9.122;2022-10-31T16:35:23;8.18;;;2.28;;
67597;SDS011;62026;39.230;9.122;2022-10-31T16:38:04;5.38;;;2.15;;
67597;SDS011;62026;39.230;9.122;2022-10-31T16:40:30;6.13;;;1.92;;
67597;SDS011;62026;39.230;9.122;2022-10-31T16:42:58;8.88;;;2.28;;
67597;SDS011;62026;39.230;9.122;2022-10-31T16:45:26;10.70;;;2.42;;
67597;SDS011;62026;39.230;9.122;2022-10-31T16:48:06;8.45;;;2.35;;
67597;SDS011;62026;39.230;9.122;2022-10-31T16:50:37;10.57;;;2.53;;
67597;SDS011;62026;39.230;9.122;2022-10-31T16:53:03;7.65;;;2.33;;
67597;SDS011;62026;39.230;9.122;2022-10-31T16:55:31;7.82;;;2.20;;
67597;SDS011;62026;39.230;9.122;2022-10-31T16:58:00;3.85;;;2.00;;
67597;SDS011;62026;39.230;9.122;2022-10-31T17:00:27;11.40;;;2.30;;
67597;SDS011;62026;39.230;9.122;2022-10-31T17:02:54;8.45;;;2.50;;
67597;SDS011;62026;39.230;9.122;2022-10-31T17:05:22;5.00;;;2.38;;
67597;SDS011;62026;39.230;9.122;2022-10-31T17:07:55;8.85;;;2.20;;
67597;SDS011;62026;39.230;9.122;2022-10-31T17:10:22;7.53;;;2.20;;
67597;SDS011;62026;39.230;9.122;2022-10-31T17:12:49;5.60;;;2.22;;
67597;SDS011;62026;39.230;9.122;2022-10-31T17:15:17;6.15;;;2.15;;
67597;SDS011;62026;39.230;9.122;2022-10-31T17:17:49;6.85;;;2.20;;
67597;SDS011;62026;39.230;9.122;2022-10-31T17:22:51;6.10;;;2.70;;
67597;SDS011;62026;39.230;9.122;2022-10-31T17:25:24;8.23;;;2.95;;
67597;SDS011;62026;39.230;9.122;2022-10-31T17:27:53;5.78;;;2.42;;
67597;SDS011;62026;39.230;9.122;2022-10-31T17:30:20;4.25;;;1.92;;
67597;SDS011;62026;39.230;9.122;2022-10-31T17:32:47;5.43;;;2.10;;
67597;SDS011;62026;39.230;9.122;2022-10-31T17:35:16;6.95;;;2.47;;
67597;SDS011;62026;39.230;9.122;2022-10-31T17:37:43;8.90;;;2.50;;
67597;SDS011;62026;39.230;9.122;2022-10-31T17:40:11;6.70;;;2.58;;
67597;SDS011;62026;39.230;9.122;2022-10-31T17:42:41;13.77;;;2.95;;
67597;SDS011;62026;39.230;9.122;2022-10-31T17:47:39;7.30;;;2.83;;
67597;SDS011;62026;39.230;9.122;2022-10-31T17:50:05;9.23;;;2.67;;
67597;SDS011;62026;39.230;9.122;2022-10-31T17:52:31;7.90;;;3.10;;
67597;SDS011;62026;39.230;9.122;2022-10-31T17:54:57;11.70;;;3.00;;
67597;SDS011;62026;39.230;9.122;2022-10-31T17:57:24;9.48;;;2.75;;
67597;SDS011;62026;39.230;9.122;2022-10-31T17:59:49;9.32;;;2.72;;
67597;SDS011;62026;39.230;9.122;2022-10-31T18:02:15;6.97;;;2.80;;
67597;SDS011;62026;39.230;9.122;2022-10-31T18:04:41;9.65;;;2.83;;
67597;SDS011;62026;39.230;9.122;2022-10-31T18:07:07;7.88;;;2.70;;
67597;SDS011;62026;39.230;9.122;2022-10-31T18:09:34;7.78;;;2.92;;
67597;SDS011;62026;39.230;9.122;2022-10-31T18:12:00;7.80;;;2.80;;
67597;SDS011;62026;39.230;9.122;2022-10-31T18:14:26;12.43;;;2.58;;